PRCO2: Canadian River, Purcell, OK

Data processed at Fri May 26 2017 22:43


All information presented herein is the property of the government of the United States of America and may be revised or deleted at any time without prior notice.
Dissemination of this information without the expressed written consent of the Public Affairs Office, Tulsa District U.S. Army Corps of Engineers is strictly prohibited.
These data are gathered electronically and, as presented, have not undergone any form of quality control. These data are not guaranteed to be valid or correct.
Go to home page.
Go to station list.
Go to home page.


Previous Day
Next Day
Current Day


    
SHEF ID:       PRCO2     Canadian River at Purcell, OK
STATION TYPE:  

               PRECIP PRECIP(A)     STAGE  RIV-FLOW  BAT-LOAD
                   in        in        ft       cfs      volt
              Ccp-Rev   Ccp-Rev   Ccp-Rev   Ccp-Rev   Ccp-Rev
(US/Central)
05/26 00:00      0.00      0.00      4.12       419     12.41
05/26 01:00      0.00      0.00      4.13       425     12.41
05/26 02:00      0.00      0.00      4.13       425     12.41
05/26 03:00      0.00      0.00      4.10       406     12.41
05/26 04:00      0.00      0.00      4.11       413     12.41
05/26 05:00      0.00      0.00      4.13       425     12.41
05/26 06:00      0.00      0.00      4.14       432     12.41
05/26 07:00      0.00      0.00      4.12       419     12.41
05/26 08:00      0.00      0.00      4.15       438     12.89
05/26 09:00      0.00      0.00      4.15       438     12.65
05/26 10:00      0.00      0.00      4.15       438     12.57
05/26 11:00      0.00      0.00      4.14       432     12.49
05/26 12:00      0.00      0.00      4.14       432     12.49
05/26 13:00      0.00      0.00      4.14       432     12.41
05/26 14:00      0.00      0.00      4.11       413     12.41
05/26 15:00      0.00      0.00      4.12       419     12.41
05/26 16:00      0.00      0.00      4.09       400     12.41
05/26 17:00      0.00      0.00      4.09       400     12.41
05/26 18:00      0.00      0.00      4.15       438     12.41
05/26 19:00      0.00      0.00      4.12       419     12.41
05/26 20:00      0.00      0.00      4.12       419     12.41
05/26 21:00      0.00      0.00      4.14       432     12.41
05/26 22:00      0.00      0.00      4.12       419     12.41
05/26 23:00      ----      ----      ----      ----      ----